Time;durP1;ratioP1;P1;durP2;ratioP2;P2;SDS_P1;SDS_P2;PMS_P1;PMS_P2;Temp;Humidity;BMP_temperature;BMP_pressure;BME280_temperature;BME280_humidity;BME280_pressure;Samples;Min_cycle;Max_cycle;Signal;HPM_P1;HPM_P2
2022/10/07 00:00:39;;;;;;;20.13;13.50;;;12.60;99.90;;;;;;5031522;28;20017;-79
2022/10/07 00:03:05;;;;;;;19.05;12.13;;;12.60;99.90;;;;;;5032142;28;20105;-79
2022/10/07 00:05:30;;;;;;;15.05;12.10;;;12.60;99.90;;;;;;5032191;28;20513;-80
2022/10/07 00:07:56;;;;;;;15.68;11.80;;;12.60;99.90;;;;;;5032133;28;20132;-79
2022/10/07 00:10:21;;;;;;;17.67;11.95;;;12.60;99.90;;;;;;5032349;28;20040;-79
2022/10/07 00:12:47;;;;;;;18.02;11.45;;;12.60;99.90;;;;;;5032283;28;20041;-80
2022/10/07 00:15:14;;;;;;;17.73;11.50;;;12.60;99.90;;;;;;5032106;28;20129;-79
2022/10/07 00:17:39;;;;;;;13.90;11.55;;;12.60;99.90;;;;;;5031890;28;20465;-79
2022/10/07 00:20:06;;;;;;;14.43;11.60;;;12.60;99.90;;;;;;5032100;28;20037;-79
2022/10/07 00:22:31;;;;;;;17.00;12.00;;;12.60;99.90;;;;;;5031797;28;20490;-79
2022/10/07 00:24:57;;;;;;;16.85;12.10;;;12.60;99.90;;;;;;5018353;28;20068;-79
2022/10/07 00:27:23;;;;;;;15.65;12.07;;;12.60;99.90;;;;;;5032011;28;20030;-79
2022/10/07 00:29:48;;;;;;;16.10;12.45;;;12.50;99.90;;;;;;5031573;28;20033;-79
2022/10/07 00:32:14;;;;;;;17.05;12.35;;;12.50;99.90;;;;;;5020110;28;20030;-79
2022/10/07 00:34:39;;;;;;;19.95;13.10;;;12.50;99.90;;;;;;5028244;28;20039;-79
2022/10/07 00:37:05;;;;;;;16.33;12.10;;;12.40;99.90;;;;;;5021635;28;20221;-79
2022/10/07 00:39:30;;;;;;;16.98;12.32;;;12.40;99.90;;;;;;5020534;28;20076;-79
2022/10/07 00:41:56;;;;;;;18.50;12.20;;;12.40;99.90;;;;;;5026200;28;20466;-79
2022/10/07 00:44:43;;;;;;;13.75;10.60;;;12.40;99.90;;;;;;5031260;28;20034;-79
2022/10/07 00:47:23;;;;;;;14.25;11.15;;;12.30;99.90;;;;;;5017672;28;20033;-79
2022/10/07 00:49:53;;;;;;;13.18;10.57;;;12.30;99.90;;;;;;5031338;28;20036;-79
2022/10/07 00:52:23;;;;;;;16.00;10.23;;;12.30;99.90;;;;;;5031187;28;20044;-79
2022/10/07 00:54:53;;;;;;;15.45;10.48;;;12.30;99.90;;;;;;5020271;28;20208;-79
2022/10/07 00:57:24;;;;;;;13.50;10.10;;;12.30;99.90;;;;;;5030623;28;20061;-84
2022/10/07 00:59:54;;;;;;;13.35;9.40;;;12.30;99.90;;;;;;5034578;28;20099;-82
2022/10/07 01:02:24;;;;;;;14.00;9.95;;;12.30;99.90;;;;;;5032618;28;20017;-82
2022/10/07 01:04:51;;;;;;;12.00;9.60;;;12.30;99.90;;;;;;5033208;28;20040;-83
2022/10/07 01:07:20;;;;;;;12.90;8.95;;;12.30;99.90;;;;;;5032746;28;20052;-82
2022/10/07 01:09:49;;;;;;;10.55;9.07;;;12.30;99.90;;;;;;5032561;28;20029;-82
2022/10/07 01:12:17;;;;;;;12.52;8.80;;;12.30;99.90;;;;;;5032414;28;20033;-82
2022/10/07 01:15:02;;;;;;;16.42;10.10;;;12.30;99.90;;;;;;5032078;28;20183;-82
2022/10/07 01:17:34;;;;;;;15.75;9.50;;;12.30;99.90;;;;;;5032049;28;20115;-83
2022/10/07 01:20:11;;;;;;;14.43;10.02;;;12.30;99.90;;;;;;5032377;28;20771;-83
2022/10/07 01:23:15;;;;;;;12.40;9.23;;;12.30;99.90;;;;;;5018195;28;20022;-83
2022/10/07 01:26:18;;;;;;;13.63;9.73;;;12.30;99.90;;;;;;5030137;28;20485;-83
2022/10/07 01:28:45;;;;;;;12.93;9.38;;;12.30;99.90;;;;;;5022304;28;20037;-83
2022/10/07 01:31:15;;;;;;;13.68;9.52;;;12.30;99.90;;;;;;5029597;28;20061;-82
2022/10/07 01:33:43;;;;;;;12.63;9.65;;;12.30;99.90;;;;;;5015589;28;20018;-83
2022/10/07 01:36:14;;;;;;;11.90;9.30;;;12.30;99.90;;;;;;5026814;28;20036;-82
2022/10/07 01:38:48;;;;;;;11.88;9.25;;;12.30;99.90;;;;;;5031597;28;20013;-82
2022/10/07 01:41:17;;;;;;;13.25;9.50;;;12.30;99.90;;;;;;5031960;28;20025;-82
2022/10/07 01:43:45;;;;;;;15.40;9.82;;;12.20;99.90;;;;;;5031423;28;20080;-82
2022/10/07 01:46:17;;;;;;;14.68;9.00;;;12.20;99.90;;;;;;5019583;28;20038;-83
2022/10/07 01:48:45;;;;;;;16.23;9.90;;;12.20;99.90;;;;;;5031829;28;20025;-82
2022/10/07 01:51:11;;;;;;;15.48;9.43;;;12.20;99.90;;;;;;5031594;28;20111;-83
2022/10/07 01:54:01;;;;;;;14.65;9.43;;;12.20;99.90;;;;;;5031855;28;20497;-83
2022/10/07 01:56:48;;;;;;;14.45;9.65;;;12.20;99.90;;;;;;5031620;28;20026;-83
2022/10/07 01:59:26;;;;;;;11.27;8.68;;;12.20;99.90;;;;;;5031804;28;20160;-82
2022/10/07 02:02:01;;;;;;;14.18;9.15;;;12.20;99.90;;;;;;5027352;28;20021;-83
2022/10/07 02:04:32;;;;;;;11.50;8.77;;;12.20;99.90;;;;;;5031820;28;20025;-83
2022/10/07 02:07:04;;;;;;;14.00;8.15;;;12.30;99.90;;;;;;5031527;28;20052;-82
2022/10/07 02:09:36;;;;;;;12.60;9.27;;;12.20;99.90;;;;;;5031556;28;20025;-83
2022/10/07 02:12:30;;;;;;;10.48;8.65;;;12.30;99.90;;;;;;5030659;28;20045;-79
2022/10/07 02:15:07;;;;;;;13.95;8.88;;;12.20;99.90;;;;;;5029912;28;20042;-80
2022/10/07 02:17:38;;;;;;;12.73;9.20;;;12.20;99.90;;;;;;5029820;28;20494;-79
2022/10/07 02:20:07;;;;;;;13.48;10.10;;;12.20;99.90;;;;;;5029867;28;20025;-79
2022/10/07 02:22:35;;;;;;;16.70;9.20;;;12.20;99.90;;;;;;5029639;28;20362;-79
2022/10/07 02:25:01;;;;;;;13.38;8.93;;;12.20;99.90;;;;;;5029841;28;20048;-79
2022/10/07 02:27:33;;;;;;;15.90;9.65;;;12.20;99.90;;;;;;5029903;28;20041;-79
2022/10/07 02:30:03;;;;;;;14.00;9.98;;;12.20;99.90;;;;;;5029783;28;20029;-79
2022/10/07 02:32:30;;;;;;;14.45;9.80;;;12.20;99.90;;;;;;5026497;28;20037;-79
2022/10/07 02:35:04;;;;;;;13.80;9.05;;;12.20;99.90;;;;;;5019553;28;20076;-79
2022/10/07 02:37:34;;;;;;;12.63;9.45;;;12.10;99.90;;;;;;5029570;28;20037;-79
2022/10/07 02:40:01;;;;;;;12.10;8.82;;;12.10;99.90;;;;;;5029877;28;20455;-79
2022/10/07 02:42:32;;;;;;;13.68;8.40;;;12.10;99.90;;;;;;5029689;28;20049;-79
2022/10/07 02:45:28;;;;;;;11.93;8.68;;;12.10;99.90;;;;;;5013850;28;20443;-79
2022/10/07 02:48:03;;;;;;;13.02;7.78;;;12.10;99.90;;;;;;5022838;28;20107;-79
2022/10/07 02:50:36;;;;;;;11.70;7.60;;;12.10;99.90;;;;;;5020800;28;20096;-79
2022/10/07 02:53:03;;;;;;;9.65;8.07;;;12.10;99.90;;;;;;5029612;28;20036;-79
2022/10/07 02:55:30;;;;;;;10.38;7.25;;;12.10;99.90;;;;;;5029536;28;20037;-79
2022/10/07 02:58:04;;;;;;;9.25;7.00;;;12.10;99.90;;;;;;5029462;28;20434;-79
2022/10/07 03:00:32;;;;;;;10.43;8.10;;;12.00;99.90;;;;;;5029560;28;20049;-79
2022/10/07 03:03:02;;;;;;;13.07;8.05;;;12.00;99.90;;;;;;5029335;28;20064;-79
2022/10/07 03:05:28;;;;;;;10.05;8.52;;;12.00;99.90;;;;;;5029515;28;20014;-79
2022/10/07 03:08:07;;;;;;;12.40;9.00;;;12.00;99.90;;;;;;5029583;28;20390;-79
2022/10/07 03:10:33;;;;;;;13.35;8.77;;;11.90;99.90;;;;;;5029647;28;20033;-79
2022/10/07 03:12:58;;;;;;;11.13;9.00;;;11.90;99.90;;;;;;5029457;28;20144;-79
2022/10/07 03:15:24;;;;;;;11.98;8.35;;;11.90;99.90;;;;;;5029260;28;20049;-79
2022/10/07 03:17:50;;;;;;;13.02;8.60;;;11.80;99.90;;;;;;5029118;28;20429;-79
2022/10/07 03:20:16;;;;;;;11.00;8.18;;;11.80;99.90;;;;;;5029410;28;20378;-79
2022/10/07 03:22:42;;;;;;;12.32;8.75;;;11.70;99.90;;;;;;5027817;28;20025;-79
2022/10/07 03:25:12;;;;;;;12.88;8.80;;;11.70;99.90;;;;;;5029574;28;20428;-79
2022/10/07 03:27:38;;;;;;;13.95;9.45;;;11.60;99.90;;;;;;5029183;28;20029;-79
2022/10/07 03:30:05;;;;;;;10.02;8.95;;;11.60;99.90;;;;;;5029110;28;20052;-79
2022/10/07 03:32:31;;;;;;;11.40;9.18;;;11.50;99.90;;;;;;5017311;28;20360;-79
2022/10/07 03:34:57;;;;;;;13.07;9.55;;;11.50;99.90;;;;;;5017661;28;20089;-79
2022/10/07 03:37:23;;;;;;;12.55;9.30;;;11.40;99.90;;;;;;5032782;28;20503;-79
2022/10/07 03:39:49;;;;;;;13.45;9.75;;;11.40;99.90;;;;;;5032873;28;20021;-79
2022/10/07 03:42:15;;;;;;;13.32;9.25;;;11.30;99.90;;;;;;5032882;28;20036;-79
2022/10/07 03:44:40;;;;;;;11.10;8.45;;;11.30;99.90;;;;;;5032147;28;20036;-79
2022/10/07 03:47:07;;;;;;;11.40;8.70;;;11.20;99.90;;;;;;5018185;28;20050;-79
2022/10/07 03:49:33;;;;;;;14.55;9.15;;;11.20;99.90;;;;;;5025320;28;20029;-79
2022/10/07 03:52:00;;;;;;;14.90;8.93;;;11.10;99.90;;;;;;5032549;28;20105;-79
2022/10/07 03:54:25;;;;;;;14.15;9.35;;;11.10;99.90;;;;;;5032723;28;20030;-79
2022/10/07 03:56:51;;;;;;;17.02;9.00;;;11.00;99.90;;;;;;5032316;28;20040;-79
2022/10/07 03:59:17;;;;;;;14.90;9.25;;;11.00;99.90;;;;;;5032490;28;20028;-79
2022/10/07 04:01:42;;;;;;;14.15;9.52;;;10.90;99.90;;;;;;5032472;28;20037;-79
2022/10/07 04:04:08;;;;;;;13.27;9.48;;;10.90;99.90;;;;;;5032817;28;20048;-79
2022/10/07 04:06:34;;;;;;;13.23;9.75;;;10.90;99.90;;;;;;5032460;28;20029;-79
2022/10/07 04:08:59;;;;;;;16.40;9.70;;;10.80;99.90;;;;;;5032415;28;20026;-79
2022/10/07 04:11:25;;;;;;;19.20;9.88;;;10.80;99.90;;;;;;5033121;28;20087;-81
2022/10/07 04:13:51;;;;;;;11.48;8.13;;;10.80;99.90;;;;;;5031291;28;20038;-82
2022/10/07 04:16:17;;;;;;;16.02;9.43;;;10.70;99.90;;;;;;5014831;28;20046;-83
2022/10/07 04:18:44;;;;;;;13.88;8.75;;;10.60;99.90;;;;;;5015929;28;20034;-83
2022/10/07 04:21:10;;;;;;;13.00;8.23;;;10.60;99.90;;;;;;5015340;28;20129;-83
2022/10/07 04:23:36;;;;;;;14.85;8.70;;;10.60;99.90;;;;;;5015596;28;20101;-83
2022/10/07 04:26:08;;;;;;;12.85;8.63;;;10.50;99.90;;;;;;5015192;28;20029;-83
2022/10/07 04:28:33;;;;;;;11.93;8.73;;;10.50;99.90;;;;;;5015557;28;20113;-83
2022/10/07 04:31:05;;;;;;;12.00;8.95;;;10.50;99.90;;;;;;5015029;28;20069;-83
2022/10/07 04:33:31;;;;;;;13.63;9.35;;;10.40;99.90;;;;;;5035063;28;20038;-83
2022/10/07 04:36:01;;;;;;;15.70;10.10;;;10.40;99.90;;;;;;5034811;28;20033;-83
2022/10/07 04:38:27;;;;;;;15.35;9.95;;;10.40;99.90;;;;;;5035401;28;20026;-83
2022/10/07 04:40:52;;;;;;;12.30;8.57;;;10.30;99.90;;;;;;5034875;28;20432;-83
2022/10/07 04:43:22;;;;;;;14.00;8.43;;;10.30;99.90;;;;;;5035088;28;20025;-83
2022/10/07 04:45:52;;;;;;;13.10;8.77;;;10.30;99.90;;;;;;5035004;28;20124;-83
2022/10/07 04:48:19;;;;;;;12.67;8.43;;;10.20;99.90;;;;;;5034575;28;20048;-83
2022/10/07 04:50:45;;;;;;;11.37;7.83;;;10.20;99.90;;;;;;5035329;28;20025;-83
2022/10/07 04:53:13;;;;;;;10.17;7.73;;;10.20;99.90;;;;;;5034138;28;20442;-82
2022/10/07 04:55:47;;;;;;;13.67;7.67;;;10.10;99.90;;;;;;5034341;28;20030;-86
2022/10/07 04:58:14;;;;;;;14.15;7.18;;;10.10;99.90;;;;;;5035281;28;20025;-84
2022/10/07 05:00:42;;;;;;;10.93;7.03;;;10.00;99.90;;;;;;5037396;28;20026;-84
2022/10/07 05:03:07;;;;;;;13.20;7.57;;;9.90;99.90;;;;;;5037889;28;20026;-84
2022/10/07 05:05:33;;;;;;;12.23;7.93;;;9.90;99.90;;;;;;5038455;28;20026;-84
2022/10/07 05:07:59;;;;;;;11.73;8.00;;;9.90;99.90;;;;;;5038970;28;20493;-84
2022/10/07 05:10:24;;;;;;;11.63;8.00;;;9.90;99.90;;;;;;5039066;28;20025;-84
2022/10/07 05:12:50;;;;;;;12.97;8.23;;;9.80;99.90;;;;;;5038914;28;20077;-84
2022/10/07 05:15:15;;;;;;;11.87;8.37;;;9.80;99.90;;;;;;5035510;28;20065;-84
2022/10/07 05:17:41;;;;;;;17.67;10.23;;;9.80;99.90;;;;;;5034504;28;20026;-84
2022/10/07 05:20:11;;;;;;;17.77;10.83;;;9.80;99.90;;;;;;5034104;28;20352;-84
2022/10/07 05:22:37;;;;;;;16.50;11.00;;;9.70;99.90;;;;;;5034445;28;20386;-84
2022/10/07 05:25:02;;;;;;;19.70;12.50;;;9.70;99.90;;;;;;5032833;28;20021;-77
2022/10/07 05:27:28;;;;;;;23.30;13.43;;;9.70;99.90;;;;;;5028506;28;20549;-79
2022/10/07 05:29:54;;;;;;;23.07;12.63;;;9.70;99.90;;;;;;5030196;28;20033;-79
2022/10/07 05:32:20;;;;;;;23.70;13.67;;;9.70;99.90;;;;;;5021174;28;20394;-79
2022/10/07 05:34:45;;;;;;;29.43;14.13;;;9.70;99.90;;;;;;5023491;28;20049;-79
2022/10/07 05:37:11;;;;;;;22.10;13.60;;;9.80;99.90;;;;;;5023569;28;20132;-78
2022/10/07 05:39:37;;;;;;;22.23;12.80;;;9.70;99.90;;;;;;5019948;28;20025;-79
2022/10/07 05:42:03;;;;;;;20.77;13.80;;;9.70;99.90;;;;;;5024047;28;20146;-79
2022/10/07 05:44:32;;;;;;;36.97;15.13;;;9.80;99.90;;;;;;5010631;28;20511;-79
2022/10/07 05:46:58;;;;;;;22.27;14.33;;;9.80;99.90;;;;;;5015726;28;20130;-78
2022/10/07 05:49:23;;;;;;;23.97;14.27;;;9.80;99.90;;;;;;5028155;28;20125;-79
2022/10/07 05:51:50;;;;;;;26.50;14.30;;;9.90;99.90;;;;;;5023143;28;20022;-79
2022/10/07 05:54:16;;;;;;;23.13;14.17;;;9.90;99.90;;;;;;5014730;28;20037;-79
2022/10/07 05:56:42;;;;;;;30.43;14.97;;;9.90;99.90;;;;;;5024235;28;20104;-78
2022/10/07 05:59:07;;;;;;;26.30;14.57;;;10.00;99.90;;;;;;5009757;28;20109;-79
2022/10/07 06:01:33;;;;;;;29.00;15.47;;;10.00;99.90;;;;;;5010072;28;20076;-79
2022/10/07 06:03:59;;;;;;;19.23;13.53;;;10.00;99.90;;;;;;5012346;28;20070;-80
2022/10/07 06:06:25;;;;;;;19.10;13.67;;;10.10;99.90;;;;;;5021600;28;20397;-83
2022/10/07 06:08:52;;;;;;;20.20;14.37;;;10.20;99.90;;;;;;5028260;28;20025;-83
2022/10/07 06:14:03;;;;;;;19.80;12.70;;;10.30;99.90;;;;;;5013165;28;20033;-82
2022/10/07 06:16:29;;;;;;;20.73;13.53;;;10.40;99.90;;;;;;5019764;28;20030;-79
2022/10/07 06:18:55;;;;;;;27.83;13.97;;;10.40;99.90;;;;;;5022111;28;20035;-79
2022/10/07 06:21:26;;;;;;;31.50;12.68;;;10.50;99.90;;;;;;5019125;28;20144;-79
2022/10/07 06:23:55;;;;;;;24.87;12.37;;;10.50;99.90;;;;;;5023362;28;20477;-79
2022/10/07 06:26:21;;;;;;;39.25;11.77;;;10.60;99.90;;;;;;5021914;28;20109;-79
2022/10/07 06:28:47;;;;;;;33.53;11.25;;;10.70;99.90;;;;;;5010624;28;20514;-79
2022/10/07 06:31:23;;;;;;;21.83;11.10;;;10.70;99.90;;;;;;5016886;28;20135;-79
2022/10/07 06:33:50;;;;;;;15.75;10.77;;;10.70;99.90;;;;;;5014982;28;20379;-80
2022/10/07 06:36:16;;;;;;;13.13;9.88;;;10.70;99.90;;;;;;5009521;28;20033;-79
2022/10/07 06:38:47;;;;;;;15.10;8.82;;;10.80;99.90;;;;;;5019733;28;20029;-79
2022/10/07 06:41:13;;;;;;;12.48;10.02;;;10.80;99.90;;;;;;5009428;28;20026;-79
2022/10/07 06:43:39;;;;;;;18.95;9.05;;;10.90;99.90;;;;;;5010257;28;20470;-79
2022/10/07 06:46:06;;;;;;;9.80;7.90;;;10.90;99.90;;;;;;5017567;28;20112;-79
2022/10/07 06:48:34;;;;;;;10.40;7.82;;;10.90;99.90;;;;;;5016658;28;20032;-79
2022/10/07 06:51:03;;;;;;;9.00;7.13;;;10.90;99.90;;;;;;5022306;28;20022;-79
2022/10/07 06:53:29;;;;;;;11.20;8.52;;;10.90;99.90;;;;;;5012730;28;20030;-80
2022/10/07 06:55:58;;;;;;;11.35;8.07;;;10.90;99.90;;;;;;5018256;28;20030;-79
2022/10/07 06:58:24;;;;;;;11.63;8.75;;;10.90;99.90;;;;;;5014354;28;20038;-79
2022/10/07 07:00:51;;;;;;;11.85;9.15;;;10.90;99.90;;;;;;5020746;28;20033;-79
2022/10/07 07:03:17;;;;;;;12.27;9.05;;;10.90;99.90;;;;;;5061614;28;20029;-79
2022/10/07 07:05:44;;;;;;;9.70;8.40;;;10.90;99.90;;;;;;5032149;28;20354;-80
2022/10/07 07:08:09;;;;;;;14.98;9.18;;;11.00;99.90;;;;;;5032452;28;20025;-80
2022/10/07 07:10:40;;;;;;;11.38;8.93;;;11.00;99.90;;;;;;5035330;28;20525;-85
2022/10/07 07:13:07;;;;;;;9.95;8.00;;;11.00;99.90;;;;;;5031042;28;20033;-85
2022/10/07 07:15:33;;;;;;;12.10;8.70;;;11.00;99.90;;;;;;5029392;28;20045;-85
2022/10/07 07:17:59;;;;;;;10.85;8.50;;;11.00;99.90;;;;;;5035760;28;20040;-85
2022/10/07 07:20:25;;;;;;;10.27;8.52;;;11.10;99.90;;;;;;5035143;28;20041;-85
2022/10/07 07:22:51;;;;;;;10.48;8.32;;;11.20;99.90;;;;;;5036019;28;20079;-85
2022/10/07 07:25:18;;;;;;;12.32;9.40;;;11.20;99.90;;;;;;5036095;28;20464;-86
2022/10/07 07:27:46;;;;;;;10.02;8.65;;;11.30;99.90;;;;;;5035800;28;20037;-85
2022/10/07 07:30:12;;;;;;;12.40;9.73;;;11.30;99.90;;;;;;5036159;28;20595;-82
2022/10/07 07:32:38;;;;;;;14.30;10.43;;;11.40;99.90;;;;;;5035780;28;20104;-83
2022/10/07 07:35:06;;;;;;;12.77;9.43;;;11.50;99.90;;;;;;5036281;28;20056;-83
2022/10/07 07:37:32;;;;;;;13.48;10.27;;;11.60;99.90;;;;;;5035734;28;20041;-83
2022/10/07 07:39:58;;;;;;;14.02;10.98;;;11.60;99.90;;;;;;5035761;28;20026;-83
2022/10/07 07:42:24;;;;;;;14.10;10.55;;;11.80;99.90;;;;;;5035758;28;20030;-83
2022/10/07 07:44:49;;;;;;;14.85;10.02;;;11.80;99.90;;;;;;5035720;28;20446;-83
2022/10/07 07:47:15;;;;;;;17.23;11.63;;;12.00;99.90;;;;;;5035669;28;20084;-83
2022/10/07 07:49:41;;;;;;;19.83;11.35;;;12.00;99.90;;;;;;5036085;28;20088;-83
2022/10/07 07:52:07;;;;;;;16.90;11.25;;;12.10;99.90;;;;;;5035647;28;20167;-83
2022/10/07 07:54:36;;;;;;;17.60;12.48;;;12.20;99.90;;;;;;5035741;28;20462;-83
2022/10/07 07:57:02;;;;;;;22.73;12.52;;;12.30;99.90;;;;;;5035656;28;20108;-83
2022/10/07 07:59:28;;;;;;;18.65;12.23;;;12.30;99.90;;;;;;5033164;28;20076;-80
2022/10/07 08:01:53;;;;;;;19.20;12.07;;;12.30;99.90;;;;;;5021669;28;20025;-80
2022/10/07 08:04:19;;;;;;;17.23;11.30;;;12.40;99.90;;;;;;5023401;28;20045;-80
2022/10/07 08:06:45;;;;;;;16.15;11.10;;;12.50;99.90;;;;;;5024009;28;20563;-80
2022/10/07 08:09:11;;;;;;;21.45;13.30;;;12.60;99.90;;;;;;5025295;28;20167;-80
2022/10/07 08:11:37;;;;;;;25.27;14.23;;;12.70;99.90;;;;;;5015599;28;20375;-79
2022/10/07 08:14:03;;;;;;;18.45;12.52;;;12.70;99.90;;;;;;5023434;28;20029;-80
2022/10/07 08:16:28;;;;;;;23.77;14.20;;;12.90;99.90;;;;;;5014790;28;20915;-80
2022/10/07 08:18:56;;;;;;;18.27;12.05;;;12.90;99.90;;;;;;5017502;28;20458;-80
2022/10/07 08:21:26;;;;;;;25.42;16.17;;;13.00;99.90;;;;;;5027761;28;20060;-80
2022/10/07 08:23:57;;;;;;;28.15;16.33;;;13.10;99.90;;;;;;5030369;28;20036;-79
2022/10/07 08:26:23;;;;;;;23.08;16.15;;;13.10;99.90;;;;;;5031359;28;20041;-79
2022/10/07 08:28:49;;;;;;;23.20;17.02;;;13.10;99.90;;;;;;5031462;28;20590;-80
2022/10/07 08:31:17;;;;;;;25.70;16.63;;;13.10;99.90;;;;;;5028753;28;20045;-80
2022/10/07 08:33:45;;;;;;;27.70;16.42;;;13.10;99.90;;;;;;5029399;28;20033;-80
2022/10/07 08:36:16;;;;;;;22.65;16.42;;;13.10;99.90;;;;;;5032033;28;20029;-83
2022/10/07 08:38:42;;;;;;;28.10;15.95;;;13.00;99.90;;;;;;5033259;28;20034;-80
2022/10/07 08:41:07;;;;;;;23.13;14.60;;;13.10;99.90;;;;;;5021950;28;20034;-80
2022/10/07 08:43:35;;;;;;;23.52;15.45;;;13.20;99.90;;;;;;5034271;28;20096;-80
2022/10/07 08:46:03;;;;;;;25.33;16.27;;;13.20;99.90;;;;;;5034086;28;20448;-80
2022/10/07 08:48:33;;;;;;;23.15;16.45;;;13.20;99.90;;;;;;5032341;28;20017;-79
2022/10/07 08:51:16;;;;;;;22.98;15.55;;;13.30;99.90;;;;;;5032598;28;20474;-76
2022/10/07 08:53:43;;;;;;;22.17;16.00;;;13.30;99.90;;;;;;5030795;28;20203;-78
2022/10/07 08:56:16;;;;;;;21.15;16.33;;;13.30;99.90;;;;;;5032698;28;20026;-78
2022/10/07 08:59:08;;;;;;;32.35;16.42;;;13.20;99.90;;;;;;5019415;28;20028;-78
2022/10/07 09:01:59;;;;;;;22.10;16.25;;;13.20;99.90;;;;;;5030859;28;20111;-78
2022/10/07 09:05:04;;;;;;;23.02;16.77;;;13.20;99.90;;;;;;5021950;28;20041;-78
2022/10/07 09:07:38;;;;;;;22.73;16.77;;;13.20;99.90;;;;;;5031505;28;20021;-78
2022/10/07 09:10:29;;;;;;;25.88;16.95;;;13.20;99.90;;;;;;5032405;28;20034;-79
2022/10/07 09:13:17;;;;;;;24.52;17.52;;;13.20;99.90;;;;;;5032391;28;20026;-79
2022/10/07 09:16:08;;;;;;;25.38;18.58;;;13.30;99.90;;;;;;5032485;28;20044;-79
2022/10/07 09:18:44;;;;;;;23.60;17.27;;;13.20;99.90;;;;;;5032240;28;20109;-79
2022/10/07 09:21:20;;;;;;;23.02;17.33;;;13.30;99.90;;;;;;5030815;28;20033;-80
2022/10/07 09:23:46;;;;;;;23.25;16.85;;;13.30;99.90;;;;;;5032201;28;20049;-80
2022/10/07 09:26:14;;;;;;;20.90;16.45;;;13.40;99.90;;;;;;5032360;28;20477;-82
2022/10/07 09:28:39;;;;;;;22.27;16.73;;;13.40;99.90;;;;;;5033585;28;20064;-82
2022/10/07 09:31:06;;;;;;;25.60;17.52;;;13.50;99.90;;;;;;5033543;28;20025;-83
2022/10/07 09:33:36;;;;;;;21.15;16.52;;;13.50;99.90;;;;;;5032564;28;20025;-83
2022/10/07 09:36:07;;;;;;;22.55;16.40;;;13.60;99.90;;;;;;5033428;28;20013;-84
2022/10/07 09:38:40;;;;;;;21.88;16.75;;;13.70;99.90;;;;;;5033421;28;20018;-83
2022/10/07 09:41:34;;;;;;;22.25;16.45;;;13.80;99.90;;;;;;5033632;28;20083;-83
2022/10/07 09:44:14;;;;;;;25.13;17.92;;;14.00;99.90;;;;;;5031478;28;20025;-83
2022/10/07 09:46:49;;;;;;;22.30;17.08;;;14.10;99.90;;;;;;5034501;28;20095;-84
2022/10/07 09:49:27;;;;;;;23.98;17.45;;;14.20;99.90;;;;;;5033382;28;20068;-83
2022/10/07 09:52:13;;;;;;;22.83;17.48;;;14.20;99.90;;;;;;5033176;28;20030;-83
2022/10/07 09:54:39;;;;;;;22.17;17.40;;;14.30;99.90;;;;;;5033456;28;20108;-84
2022/10/07 09:57:05;;;;;;;25.55;19.20;;;14.30;99.90;;;;;;5033746;28;20435;-84
2022/10/07 09:59:35;;;;;;;22.38;16.63;;;14.30;99.90;;;;;;5033483;28;20015;-83
2022/10/07 10:02:13;;;;;;;25.23;16.73;;;14.50;99.90;;;;;;5033333;28;20092;-84
2022/10/07 10:04:53;;;;;;;23.25;17.33;;;14.60;99.90;;;;;;5033586;28;20025;-83
2022/10/07 10:07:33;;;;;;;22.85;17.50;;;14.60;99.90;;;;;;5033470;28;20029;-83
2022/10/07 10:10:16;;;;;;;24.70;17.75;;;14.60;99.90;;;;;;5033304;28;20051;-83
2022/10/07 10:12:50;;;;;;;24.13;17.27;;;14.60;99.90;;;;;;5033050;28;20029;-84
2022/10/07 10:15:35;;;;;;;24.33;18.25;;;14.60;99.90;;;;;;5032883;28;20463;-83
2022/10/07 10:18:02;;;;;;;21.48;17.05;;;14.60;99.90;;;;;;5033179;28;20029;-82
2022/10/07 10:20:37;;;;;;;23.17;17.88;;;14.60;99.90;;;;;;5033058;28;20056;-82
2022/10/07 10:23:30;;;;;;;25.02;16.65;;;14.60;99.90;;;;;;5032799;28;20025;-82
2022/10/07 10:28:51;;;;;;;24.15;17.73;;;14.80;99.90;;;;;;5032948;28;20085;-82
2022/10/07 10:31:33;;;;;;;23.60;15.75;;;14.80;99.90;;;;;;5032825;28;20025;-83
2022/10/07 10:34:20;;;;;;;27.23;16.63;;;14.80;99.90;;;;;;5033020;28;20021;-81
2022/10/07 10:36:59;;;;;;;22.35;16.00;;;14.90;99.90;;;;;;5032670;28;20037;-81
2022/10/07 10:39:45;;;;;;;23.05;15.80;;;15.00;99.90;;;;;;5032800;28;20028;-80
2022/10/07 10:42:18;;;;;;;25.10;17.08;;;15.10;99.90;;;;;;5032562;28;20018;-80
2022/10/07 10:44:52;;;;;;;22.70;15.88;;;15.00;99.90;;;;;;5034325;28;20532;-80
2022/10/07 10:47:35;;;;;;;25.35;16.10;;;15.10;99.90;;;;;;5036678;28;20385;-80
2022/10/07 10:50:06;;;;;;;21.90;16.77;;;15.20;99.90;;;;;;5036657;28;20415;-81
2022/10/07 10:52:48;;;;;;;22.00;15.55;;;15.30;99.90;;;;;;5024538;28;20024;-80
2022/10/07 10:55:44;;;;;;;26.67;16.20;;;15.30;99.90;;;;;;5023074;28;20482;-80
2022/10/07 10:58:23;;;;;;;26.73;16.88;;;15.40;99.90;;;;;;5036466;28;20026;-80
2022/10/07 11:01:06;;;;;;;21.05;16.08;;;15.50;99.90;;;;;;5035151;28;20056;-80
2022/10/07 11:03:41;;;;;;;20.52;15.85;;;15.50;99.90;;;;;;5036658;28;20104;-80
2022/10/07 11:06:09;;;;;;;;;;;15.70;99.90;;;;;;5035882;28;20455;-80
2022/10/07 11:08:36;;;;;;;19.73;15.30;;;15.70;99.90;;;;;;5040014;28;19916;-79
2022/10/07 11:11:15;;;;;;;21.10;14.95;;;15.70;99.90;;;;;;5035688;28;20402;-79
2022/10/07 11:14:11;;;;;;;20.83;14.18;;;15.70;99.90;;;;;;5035865;28;20017;-79
2022/10/07 11:16:52;;;;;;;20.42;14.38;;;15.80;99.90;;;;;;5026911;28;20077;-79
2022/10/07 11:19:42;;;;;;;22.20;15.40;;;15.90;99.90;;;;;;5058131;28;20072;-79
2022/10/07 11:22:21;;;;;;;24.05;16.23;;;15.80;99.90;;;;;;5017231;28;20331;-84
2022/10/07 11:24:53;;;;;;;19.98;14.75;;;15.80;99.90;;;;;;5025550;28;20116;-84
2022/10/07 11:27:29;;;;;;;21.30;15.52;;;15.90;99.90;;;;;;5023509;28;20031;-85
2022/10/07 11:30:13;;;;;;;18.23;14.32;;;16.00;99.90;;;;;;5033820;28;20052;-84
2022/10/07 11:33:04;;;;;;;23.40;14.52;;;16.10;99.90;;;;;;5018749;28;20113;-84
2022/10/07 11:35:34;;;;;;;24.17;15.10;;;16.20;99.90;;;;;;5023873;28;20017;-84
2022/10/07 11:38:17;;;;;;;19.52;15.75;;;16.30;99.90;;;;;;5023239;28;20030;-84
2022/10/07 11:40:46;;;;;;;19.55;14.02;;;16.30;99.90;;;;;;5022755;28;20072;-84
2022/10/07 11:43:18;;;;;;;17.52;13.57;;;16.50;99.90;;;;;;5029382;28;20547;-83
2022/10/07 11:45:51;;;;;;;20.02;13.05;;;16.80;99.90;;;;;;5031149;28;20022;-84
2022/10/07 11:48:31;;;;;;;17.67;12.73;;;17.30;99.90;;;;;;5032410;28;20022;-84
2022/10/07 11:51:02;;;;;;;18.45;13.48;;;17.70;99.90;;;;;;5029358;28;20486;-84
2022/10/07 11:53:33;;;;;;;16.98;13.48;;;18.10;99.90;;;;;;5029531;28;20037;-84
2022/10/07 11:56:12;;;;;;;19.17;12.88;;;18.30;99.90;;;;;;5028271;28;20488;-84
2022/10/07 11:58:38;;;;;;;19.92;12.70;;;18.50;99.90;;;;;;5029505;28;20044;-84
2022/10/07 12:01:25;;;;;;;16.63;11.85;;;18.70;99.90;;;;;;5031250;28;20073;-84
2022/10/07 12:04:11;;;;;;;20.73;13.00;;;18.90;99.90;;;;;;5030133;28;20017;-84
2022/10/07 12:06:37;;;;;;;20.63;13.77;;;19.10;99.90;;;;;;5035826;28;20501;-84
2022/10/07 12:09:41;;;;;;;16.38;11.98;;;18.60;99.90;;;;;;5035517;28;20029;-84
2022/10/07 12:12:11;;;;;;;17.77;13.02;;;18.50;99.90;;;;;;5035351;28;20022;-84
2022/10/07 12:14:42;;;;;;;24.75;14.43;;;18.60;99.90;;;;;;5035374;28;20049;-84
2022/10/07 12:17:20;;;;;;;20.35;12.98;;;18.60;99.90;;;;;;5035169;28;20038;-84
2022/10/07 12:19:46;;;;;;;16.77;12.00;;;18.60;99.90;;;;;;5033846;28;20100;-84
2022/10/07 12:22:11;;;;;;;19.95;13.20;;;18.40;99.90;;;;;;5035448;28;20109;-84
2022/10/07 12:24:44;;;;;;;21.75;13.27;;;18.50;99.90;;;;;;5035181;28;20029;-84
2022/10/07 12:27:27;;;;;;;17.92;12.35;;;18.20;99.90;;;;;;5035653;28;20477;-84
2022/10/07 12:29:59;;;;;;;18.30;12.55;;;18.20;99.90;;;;;;5035402;28;20026;-84
2022/10/07 12:32:51;;;;;;;17.52;11.63;;;18.30;99.90;;;;;;5035012;28;20105;-84
2022/10/07 12:35:33;;;;;;;18.95;11.68;;;18.50;99.90;;;;;;5035232;28;20021;-84
2022/10/07 12:38:01;;;;;;;16.98;11.38;;;18.70;99.90;;;;;;5034822;28;20107;-84
2022/10/07 12:40:29;;;;;;;15.73;11.52;;;19.00;99.90;;;;;;5024906;28;20017;-83
2022/10/07 12:43:02;;;;;;;26.88;16.33;;;19.20;99.90;;;;;;5019274;28;20084;-83
2022/10/07 12:45:29;;;;;;;21.50;12.85;;;19.50;99.90;;;;;;5017755;28;20052;-81
2022/10/07 12:47:58;;;;;;;20.73;12.68;;;19.60;99.90;;;;;;5023819;28;20025;-81
2022/10/07 12:50:25;;;;;;;14.30;11.25;;;19.80;99.90;;;;;;5014381;28;20037;-81
2022/10/07 12:52:57;;;;;;;16.25;11.23;;;19.90;99.90;;;;;;5011254;28;20029;-81
2022/10/07 12:55:36;;;;;;;14.05;11.45;;;19.80;99.90;;;;;;5014083;28;20124;-81
2022/10/07 13:01:17;;;;;;;18.13;12.10;;;20.00;99.90;;;;;;5011233;28;20075;-80